Time;durP1;ratioP1;P1;durP2;ratioP2;P2;SDS_P1;SDS_P2;PMS_P1;PMS_P2;Temp;Humidity;BMP_temperature;BMP_pressure;BME280_temperature;BME280_humidity;BME280_pressure;Samples;Min_cycle;Max_cycle;Signal;HPM_P1;HPM_P2
2021/12/30 00:00:00;;;;;;;4.40;1.50;;;;;;;;;;5000629;28;20540;-84
2021/12/30 00:02:29;;;;;;;6.05;1.35;;;;;;;;;;5000642;28;20513;-83
2021/12/30 00:04:58;;;;;;;8.25;1.52;;;;;;;;;;4998859;28;20097;-84
2021/12/30 00:07:24;;;;;;;5.50;1.70;;;;;;;;;;4997155;28;20069;-81
2021/12/30 00:09:53;;;;;;;8.98;1.83;;;;;;;;;;4998227;28;20034;-84
2021/12/30 00:12:19;;;;;;;7.43;1.42;;;;;;;;;;4998621;28;20041;-84
2021/12/30 00:14:45;;;;;;;7.30;1.40;;;;;;;;;;4998568;28;20027;-84
2021/12/30 00:17:11;;;;;;;4.55;2.28;;;;;;;;;;4999243;28;20038;-84
2021/12/30 00:19:37;;;;;;;5.82;1.50;;;;;;;;;;4999100;28;20057;-84
2021/12/30 00:22:04;;;;;;;5.28;1.45;;;;;;;;;;4999698;28;20030;-84
2021/12/30 00:24:30;;;;;;;10.73;1.60;;;;;;;;;;4997659;28;20022;-84
2021/12/30 00:26:56;;;;;;;4.70;1.25;;;;;;;;;;5007344;28;20078;-83
2021/12/30 00:29:24;;;;;;;5.05;1.30;;;;;;;;;;5017328;28;20034;-84
2021/12/30 00:31:50;;;;;;;1.92;1.20;;;;;;;;;;5016151;28;20003;-81
2021/12/30 00:34:16;;;;;;;3.85;1.30;;;;;;;;;;5000040;28;20050;-84
2021/12/30 00:36:42;;;;;;;4.95;1.45;;;;;;;;;;5001468;28;20026;-84
2021/12/30 00:39:08;;;;;;;5.75;1.40;;;;;;;;;;4999959;28;20026;-84
2021/12/30 00:41:34;;;;;;;4.75;1.77;;;;;;;;;;5000173;28;20026;-84
2021/12/30 00:44:01;;;;;;;6.00;1.60;;;;;;;;;;4999687;28;20023;-84
2021/12/30 00:46:27;;;;;;;6.20;1.63;;;;;;;;;;5000111;28;20046;-82
2021/12/30 00:48:53;;;;;;;12.90;2.13;;;;;;;;;;4999661;28;20479;-84
2021/12/30 00:51:19;;;;;;;5.50;1.80;;;;;;;;;;4999450;28;20026;-82
2021/12/30 00:53:46;;;;;;;8.95;1.30;;;;;;;;;;5000294;28;20081;-84
2021/12/30 00:56:12;;;;;;;5.03;1.55;;;;;;;;;;4998190;28;20089;-84
2021/12/30 00:58:38;;;;;;;3.75;1.42;;;;;;;;;;5011268;28;20046;-83
2021/12/30 01:01:05;;;;;;;5.75;1.38;;;;;;;;;;5018388;28;20015;-82
2021/12/30 01:03:32;;;;;;;7.93;1.58;;;;;;;;;;5018355;28;20074;-84
2021/12/30 01:05:59;;;;;;;4.57;1.70;;;;;;;;;;5011960;28;20041;-83
2021/12/30 01:08:25;;;;;;;4.78;1.50;;;;;;;;;;5001735;28;20026;-83
2021/12/30 01:10:52;;;;;;;6.15;1.83;;;;;;;;;;4998819;28;20029;-82
2021/12/30 01:13:24;;;;;;;7.38;1.80;;;;;;;;;;4998643;28;20034;-83
2021/12/30 01:16:02;;;;;;;8.73;1.80;;;;;;;;;;4995686;28;20089;-83
2021/12/30 01:21:10;;;;;;;5.82;2.10;;;;;;;;;;5003398;28;20029;-84
2021/12/30 01:23:36;;;;;;;9.65;1.90;;;;;;;;;;5000903;28;20068;-84
2021/12/30 01:26:03;;;;;;;5.50;1.67;;;;;;;;;;5008566;28;20038;-83
2021/12/30 01:28:29;;;;;;;9.90;2.30;;;;;;;;;;4995481;28;20030;-83
2021/12/30 01:30:56;;;;;;;5.82;1.67;;;;;;;;;;4995615;28;20026;-83
2021/12/30 01:33:22;;;;;;;5.03;1.50;;;;;;;;;;4995169;28;20030;-83
2021/12/30 01:35:48;;;;;;;4.03;1.70;;;;;;;;;;4995385;28;20037;-83
2021/12/30 01:38:16;;;;;;;9.38;1.70;;;;;;;;;;4996258;28;20116;-84
2021/12/30 01:40:43;;;;;;;6.93;1.50;;;;;;;;;;4998582;28;20034;-84
2021/12/30 01:43:11;;;;;;;6.10;1.95;;;;;;;;;;4995908;28;20454;-84
2021/12/30 01:45:38;;;;;;;4.80;1.40;;;;;;;;;;4997469;28;20038;-84
2021/12/30 01:48:04;;;;;;;3.38;1.30;;;;;;;;;;4997457;28;20076;-83
2021/12/30 01:50:30;;;;;;;6.28;1.55;;;;;;;;;;4994542;28;20493;-84
2021/12/30 01:52:58;;;;;;;4.93;1.67;;;;;;;;;;4996348;28;20018;-84
2021/12/30 01:55:27;;;;;;;8.05;1.48;;;;;;;;;;4996456;28;20031;-84
2021/12/30 01:57:53;;;;;;;3.85;1.40;;;;;;;;;;4994146;28;20042;-83
2021/12/30 02:00:21;;;;;;;3.47;1.55;;;;;;;;;;4996022;28;20401;-82
2021/12/30 02:02:47;;;;;;;7.20;2.08;;;;;;;;;;4994532;28;20398;-84
2021/12/30 02:05:13;;;;;;;8.85;1.67;;;;;;;;;;4994958;28;20460;-82
2021/12/30 02:07:39;;;;;;;3.50;1.60;;;;;;;;;;4994777;28;20037;-82
2021/12/30 02:10:06;;;;;;;7.55;2.25;;;;;;;;;;4999230;28;20466;-83
2021/12/30 02:12:34;;;;;;;2.95;1.38;;;;;;;;;;4997973;28;20457;-83
2021/12/30 02:15:00;;;;;;;10.43;1.88;;;;;;;;;;4997346;28;20089;-82
2021/12/30 02:17:27;;;;;;;3.95;1.48;;;;;;;;;;4998084;28;20030;-82
2021/12/30 02:19:57;;;;;;;2.88;1.42;;;;;;;;;;4998192;28;20490;-81
2021/12/30 02:22:23;;;;;;;3.35;1.40;;;;;;;;;;4996952;28;20034;-82
2021/12/30 02:24:50;;;;;;;3.00;1.33;;;;;;;;;;4997465;28;20029;-82
2021/12/30 02:27:16;;;;;;;4.20;1.80;;;;;;;;;;4996778;28;20030;-83
2021/12/30 02:29:42;;;;;;;3.65;1.67;;;;;;;;;;4998432;28;20061;-81
2021/12/30 02:32:08;;;;;;;4.00;1.30;;;;;;;;;;4997043;28;20038;-83
2021/12/30 02:34:36;;;;;;;2.10;1.60;;;;;;;;;;4996775;28;20027;-82
2021/12/30 02:37:03;;;;;;;4.63;1.58;;;;;;;;;;4999329;28;20062;-82
2021/12/30 02:39:30;;;;;;;2.33;1.60;;;;;;;;;;4999165;28;20034;-84
2021/12/30 02:41:56;;;;;;;1.92;1.75;;;;;;;;;;4998513;28;20113;-83
2021/12/30 02:44:22;;;;;;;3.47;1.70;;;;;;;;;;4997934;28;20101;-84
2021/12/30 02:46:52;;;;;;;3.33;2.10;;;;;;;;;;4998090;28;20022;-82
2021/12/30 02:49:18;;;;;;;2.92;2.22;;;;;;;;;;4997715;28;20042;-84
2021/12/30 02:51:44;;;;;;;5.25;2.38;;;;;;;;;;4999662;28;20105;-82
2021/12/30 02:54:10;;;;;;;2.83;2.25;;;;;;;;;;5000131;28;20034;-82
2021/12/30 02:56:36;;;;;;;2.38;1.88;;;;;;;;;;4999702;28;20031;-84
2021/12/30 02:59:03;;;;;;;3.17;2.00;;;;;;;;;;4998797;28;20026;-82
2021/12/30 03:01:30;;;;;;;6.22;1.50;;;;;;;;;;4998238;28;20034;-82
2021/12/30 03:03:57;;;;;;;2.63;1.50;;;;;;;;;;4977168;28;20113;-81
2021/12/30 03:06:23;;;;;;;1.65;1.55;;;;;;;;;;4978806;28;20038;-83
2021/12/30 03:08:50;;;;;;;1.73;1.20;;;;;;;;;;4997923;28;20117;-84
2021/12/30 03:11:17;;;;;;;2.85;1.80;;;;;;;;;;4999047;28;20033;-84
2021/12/30 03:13:44;;;;;;;1.35;1.25;;;;;;;;;;4998683;28;20092;-84
2021/12/30 03:16:17;;;;;;;1.33;1.10;;;;;;;;;;4999882;28;20030;-85
2021/12/30 03:18:45;;;;;;;1.20;0.90;;;;;;;;;;4997234;28;20027;-83
2021/12/30 03:21:11;;;;;;;0.70;0.70;;;;;;;;;;4998674;28;20030;-83
2021/12/30 03:23:38;;;;;;;1.20;0.90;;;;;;;;;;4998006;28;20050;-82
2021/12/30 03:26:05;;;;;;;0.80;0.80;;;;;;;;;;4997932;28;20026;-83
2021/12/30 03:28:31;;;;;;;1.13;0.93;;;;;;;;;;4997977;28;20089;-82
2021/12/30 03:30:59;;;;;;;2.25;0.63;;;;;;;;;;5010720;28;20038;-82
2021/12/30 03:33:28;;;;;;;1.05;0.70;;;;;;;;;;4999688;28;20022;-83
2021/12/30 03:35:54;;;;;;;0.80;0.65;;;;;;;;;;4998794;28;20068;-82
2021/12/30 03:38:20;;;;;;;0.68;0.60;;;;;;;;;;4996838;28;20071;-84
2021/12/30 03:40:46;;;;;;;0.82;0.60;;;;;;;;;;4998959;28;20022;-82
2021/12/30 03:43:12;;;;;;;0.77;0.77;;;;;;;;;;4997146;28;20038;-83
2021/12/30 03:45:38;;;;;;;1.50;0.52;;;;;;;;;;5000165;28;20077;-83
2021/12/30 03:48:04;;;;;;;0.50;0.50;;;;;;;;;;4998030;28;20027;-83
2021/12/30 03:50:31;;;;;;;1.08;0.77;;;;;;;;;;4999186;28;20026;-83
2021/12/30 03:52:58;;;;;;;1.95;0.60;;;;;;;;;;4996095;28;20019;-84
2021/12/30 03:55:25;;;;;;;2.05;0.60;;;;;;;;;;4996520;28;20048;-83
2021/12/30 03:57:53;;;;;;;0.80;0.80;;;;;;;;;;4996717;28;20038;-84
2021/12/30 04:00:20;;;;;;;1.35;1.10;;;;;;;;;;4997099;28;20057;-83
2021/12/30 04:02:46;;;;;;;1.70;1.33;;;;;;;;;;4996757;28;20030;-83
2021/12/30 04:05:12;;;;;;;1.85;1.05;;;;;;;;;;4998481;28;20026;-84
2021/12/30 04:07:38;;;;;;;1.20;1.10;;;;;;;;;;4997989;28;20030;-82
2021/12/30 04:10:05;;;;;;;2.15;1.52;;;;;;;;;;4995492;28;20027;-82
2021/12/30 04:12:31;;;;;;;6.82;1.30;;;;;;;;;;4997064;28;20105;-82
2021/12/30 04:14:57;;;;;;;3.67;1.40;;;;;;;;;;4997436;28;20038;-83
2021/12/30 04:17:23;;;;;;;2.55;1.80;;;;;;;;;;4994943;28;20069;-83
2021/12/30 04:19:52;;;;;;;2.20;2.00;;;;;;;;;;4996045;28;20022;-83
2021/12/30 04:22:18;;;;;;;6.35;2.63;;;;;;;;;;4994551;28;20022;-83
2021/12/30 04:24:45;;;;;;;3.13;2.17;;;;;;;;;;4996458;28;20371;-83
2021/12/30 04:27:12;;;;;;;4.97;2.28;;;;;;;;;;4999864;28;20030;-83
2021/12/30 04:29:37;;;;;;;4.40;3.05;;;;;;;;;;4997452;28;20049;-82
2021/12/30 04:32:04;;;;;;;3.50;2.63;;;;;;;;;;4994424;28;20030;-82
2021/12/30 04:34:30;;;;;;;4.28;3.08;;;;;;;;;;4996302;28;20069;-83
2021/12/30 04:36:58;;;;;;;4.45;3.42;;;;;;;;;;4995808;28;20027;-82
2021/12/30 04:39:28;;;;;;;5.60;3.00;;;;;;;;;;4995973;28;20036;-82
2021/12/30 04:41:54;;;;;;;4.20;3.50;;;;;;;;;;4997277;28;20064;-82
2021/12/30 04:44:20;;;;;;;5.85;3.47;;;;;;;;;;4995119;28;20027;-81
2021/12/30 04:46:47;;;;;;;6.85;4.68;;;;;;;;;;4995396;28;20053;-82
2021/12/30 04:49:13;;;;;;;7.15;4.40;;;;;;;;;;4997317;28;20026;-85
2021/12/30 04:51:39;;;;;;;13.30;5.15;;;;;;;;;;5013581;28;20014;-82
2021/12/30 04:54:06;;;;;;;8.23;5.07;;;;;;;;;;5017923;28;20049;-83
2021/12/30 04:56:32;;;;;;;7.10;4.35;;;;;;;;;;5008752;28;20114;-83
2021/12/30 04:58:58;;;;;;;8.13;5.53;;;;;;;;;;5000744;28;20066;-84
2021/12/30 05:01:24;;;;;;;8.57;5.65;;;;;;;;;;5000171;28;20026;-83
2021/12/30 05:03:50;;;;;;;10.20;5.80;;;;;;;;;;5000621;28;20018;-83
2021/12/30 05:06:16;;;;;;;9.95;5.65;;;;;;;;;;4998624;28;20085;-84
2021/12/30 05:08:42;;;;;;;7.40;4.70;;;;;;;;;;5001237;28;20390;-84
2021/12/30 05:11:09;;;;;;;5.25;3.97;;;;;;;;;;4998984;28;20035;-83
2021/12/30 05:13:35;;;;;;;7.95;4.78;;;;;;;;;;4991698;28;20038;-83
2021/12/30 05:16:01;;;;;;;6.05;3.80;;;;;;;;;;4987166;28;20034;-82
2021/12/30 05:18:32;;;;;;;7.95;3.53;;;;;;;;;;4996440;28;20030;-83
2021/12/30 05:20:59;;;;;;;4.90;3.30;;;;;;;;;;4995592;28;20045;-83
2021/12/30 05:23:25;;;;;;;3.90;2.88;;;;;;;;;;4995309;28;20386;-82
2021/12/30 05:25:51;;;;;;;2.83;2.50;;;;;;;;;;4997566;28;20022;-82
2021/12/30 05:28:17;;;;;;;5.43;3.30;;;;;;;;;;5004147;28;20037;-83
2021/12/30 05:30:43;;;;;;;5.70;3.17;;;;;;;;;;5006092;28;20034;-82
2021/12/30 05:33:09;;;;;;;4.13;2.50;;;;;;;;;;5002932;28;20026;-82
2021/12/30 05:35:35;;;;;;;3.15;2.45;;;;;;;;;;5005482;28;20038;-82
2021/12/30 05:38:02;;;;;;;4.80;2.50;;;;;;;;;;4995843;28;20036;-83
2021/12/30 05:40:29;;;;;;;3.03;2.58;;;;;;;;;;4999633;28;20022;-84
2021/12/30 05:42:55;;;;;;;3.30;2.95;;;;;;;;;;4997112;28;20022;-83
2021/12/30 05:45:21;;;;;;;3.63;2.85;;;;;;;;;;4997498;28;20057;-83
2021/12/30 05:47:49;;;;;;;3.92;3.05;;;;;;;;;;4998134;28;20029;-83
2021/12/30 05:50:22;;;;;;;3.45;2.90;;;;;;;;;;4996970;28;20026;-83
2021/12/30 05:52:48;;;;;;;3.67;2.75;;;;;;;;;;4997393;28;20062;-83
2021/12/30 05:55:15;;;;;;;5.35;2.60;;;;;;;;;;4997173;28;20371;-82
2021/12/30 05:57:41;;;;;;;5.15;3.70;;;;;;;;;;4995051;28;20513;-83
2021/12/30 06:00:09;;;;;;;4.82;3.42;;;;;;;;;;4996272;28;20114;-82
2021/12/30 06:02:35;;;;;;;8.70;4.22;;;;;;;;;;4998386;28;20033;-82
2021/12/30 06:05:01;;;;;;;6.95;4.65;;;;;;;;;;5007516;28;20053;-82
2021/12/30 06:07:27;;;;;;;5.60;3.75;;;;;;;;;;5018188;28;20019;-83
2021/12/30 06:09:53;;;;;;;5.43;3.78;;;;;;;;;;5018099;28;20019;-83
2021/12/30 06:12:19;;;;;;;4.72;3.35;;;;;;;;;;5012294;28;20069;-82
2021/12/30 06:14:45;;;;;;;4.55;2.38;;;;;;;;;;4999657;28;20031;-82
2021/12/30 06:17:13;;;;;;;2.08;1.85;;;;;;;;;;4997835;28;20026;-83
2021/12/30 06:19:39;;;;;;;4.05;2.10;;;;;;;;;;4997421;28;20033;-83
2021/12/30 06:22:06;;;;;;;4.15;2.00;;;;;;;;;;4995636;28;20027;-83
2021/12/30 06:24:32;;;;;;;3.42;2.33;;;;;;;;;;4994838;28;20497;-82
2021/12/30 06:26:58;;;;;;;4.10;2.35;;;;;;;;;;4993658;28;20033;-82
2021/12/30 06:29:24;;;;;;;4.32;2.72;;;;;;;;;;4992907;28;20081;-83
2021/12/30 06:31:50;;;;;;;5.15;2.78;;;;;;;;;;4993075;28;20031;-82
2021/12/30 06:34:16;;;;;;;3.92;3.13;;;;;;;;;;4993877;28;20058;-83
2021/12/30 06:36:42;;;;;;;4.57;2.88;;;;;;;;;;4993407;28;20053;-83
2021/12/30 06:39:08;;;;;;;5.18;3.70;;;;;;;;;;4994784;28;20034;-82
2021/12/30 06:41:35;;;;;;;4.97;3.08;;;;;;;;;;4994927;28;20587;-83
2021/12/30 06:44:01;;;;;;;5.80;3.47;;;;;;;;;;4995969;28;20097;-83
2021/12/30 06:46:27;;;;;;;4.57;3.13;;;;;;;;;;4996231;28;20038;-83
2021/12/30 06:48:53;;;;;;;4.63;3.17;;;;;;;;;;4995540;28;20096;-81
2021/12/30 06:51:23;;;;;;;4.45;3.00;;;;;;;;;;4995526;28;20023;-82
2021/12/30 06:53:49;;;;;;;4.35;2.90;;;;;;;;;;4995915;28;20052;-81
2021/12/30 06:56:15;;;;;;;7.47;3.22;;;;;;;;;;4999136;28;20529;-82
2021/12/30 06:58:42;;;;;;;5.30;2.80;;;;;;;;;;5003106;28;20022;-83
2021/12/30 07:01:08;;;;;;;4.13;2.92;;;;;;;;;;4998973;28;20077;-81
2021/12/30 07:03:34;;;;;;;5.20;3.20;;;;;;;;;;4998001;28;20030;-84
2021/12/30 07:06:00;;;;;;;6.28;3.10;;;;;;;;;;4998234;28;20084;-82
2021/12/30 07:08:26;;;;;;;5.15;3.17;;;;;;;;;;4999143;28;20034;-83
2021/12/30 07:10:52;;;;;;;4.97;3.13;;;;;;;;;;4999146;28;20019;-83
2021/12/30 07:13:18;;;;;;;6.25;3.42;;;;;;;;;;4997692;28;20054;-83
2021/12/30 07:15:44;;;;;;;6.75;3.67;;;;;;;;;;4998845;28;20125;-82
2021/12/30 07:18:10;;;;;;;7.03;3.70;;;;;;;;;;4999186;28;20030;-83
2021/12/30 07:20:36;;;;;;;7.30;3.58;;;;;;;;;;4998572;28;20054;-83
2021/12/30 07:23:02;;;;;;;7.15;3.70;;;;;;;;;;4997890;28;20025;-82
2021/12/30 07:25:28;;;;;;;5.47;3.40;;;;;;;;;;4999029;28;20033;-83
2021/12/30 07:27:54;;;;;;;8.93;3.97;;;;;;;;;;4999311;28;20026;-83
2021/12/30 07:30:21;;;;;;;6.20;3.42;;;;;;;;;;5000400;28;20046;-82
2021/12/30 07:32:47;;;;;;;7.85;3.60;;;;;;;;;;4999774;28;20375;-82
2021/12/30 07:35:14;;;;;;;5.32;3.28;;;;;;;;;;5000620;28;20034;-84
2021/12/30 07:37:40;;;;;;;7.47;3.35;;;;;;;;;;5010743;28;20030;-83
2021/12/30 07:40:06;;;;;;;6.60;3.35;;;;;;;;;;5000262;28;20027;-83
2021/12/30 07:42:32;;;;;;;5.97;3.10;;;;;;;;;;4999978;28;20018;-84
2021/12/30 07:44:58;;;;;;;5.25;3.28;;;;;;;;;;4999773;28;20502;-84
2021/12/30 07:47:24;;;;;;;8.80;3.53;;;;;;;;;;4998734;28;20030;-84
2021/12/30 07:49:50;;;;;;;4.60;2.60;;;;;;;;;;4997377;28;20140;-84
2021/12/30 07:52:17;;;;;;;7.05;2.78;;;;;;;;;;4998925;28;20027;-84
2021/12/30 07:54:44;;;;;;;5.45;2.40;;;;;;;;;;4998050;28;20030;-83
2021/12/30 07:57:10;;;;;;;5.18;2.25;;;;;;;;;;4997719;28;20030;-83
2021/12/30 07:59:36;;;;;;;4.50;2.45;;;;;;;;;;4997377;28;20030;-83
2021/12/30 08:02:03;;;;;;;4.18;2.22;;;;;;;;;;4997280;28;20073;-83
2021/12/30 08:04:29;;;;;;;6.38;3.05;;;;;;;;;;4998098;28;20036;-82
2021/12/30 08:06:56;;;;;;;5.03;2.45;;;;;;;;;;4995961;28;20022;-84
2021/12/30 08:09:22;;;;;;;3.85;2.25;;;;;;;;;;4988352;28;20022;-83
2021/12/30 08:11:48;;;;;;;4.95;2.80;;;;;;;;;;4997279;28;20080;-83
2021/12/30 08:14:14;;;;;;;5.95;2.63;;;;;;;;;;4999892;28;20026;-83
2021/12/30 08:16:40;;;;;;;4.53;2.17;;;;;;;;;;4998809;28;20027;-84
2021/12/30 08:19:06;;;;;;;3.65;2.35;;;;;;;;;;4998350;28;20036;-82
2021/12/30 08:21:32;;;;;;;3.78;2.58;;;;;;;;;;4997253;28;20409;-83
2021/12/30 08:23:58;;;;;;;4.28;2.30;;;;;;;;;;5000158;28;20014;-83
2021/12/30 08:26:25;;;;;;;6.57;3.25;;;;;;;;;;5001100;28;20089;-83
2021/12/30 08:28:51;;;;;;;5.47;3.05;;;;;;;;;;5000902;28;20035;-84
2021/12/30 08:31:17;;;;;;;5.88;3.10;;;;;;;;;;4996984;28;20061;-83
2021/12/30 08:33:43;;;;;;;5.40;3.30;;;;;;;;;;4997835;28;20034;-83
2021/12/30 08:36:10;;;;;;;7.00;3.53;;;;;;;;;;4997041;28;20041;-81
2021/12/30 08:38:36;;;;;;;6.75;4.03;;;;;;;;;;4997173;28;20026;-83
2021/12/30 08:41:02;;;;;;;6.28;4.35;;;;;;;;;;4999675;28;20026;-82
2021/12/30 08:43:28;;;;;;;5.13;3.45;;;;;;;;;;4998018;28;20027;-84
2021/12/30 08:45:54;;;;;;;5.00;3.20;;;;;;;;;;4998836;28;20022;-82
2021/12/30 08:48:20;;;;;;;7.18;3.42;;;;;;;;;;4996829;28;20172;-82
2021/12/30 08:50:46;;;;;;;6.63;3.28;;;;;;;;;;4999838;28;20023;-84
2021/12/30 08:53:13;;;;;;;5.32;3.35;;;;;;;;;;4997522;28;20035;-84
2021/12/30 08:55:39;;;;;;;4.57;3.05;;;;;;;;;;4997370;28;20019;-84
2021/12/30 08:58:05;;;;;;;7.57;2.85;;;;;;;;;;4996066;28;20545;-81
2021/12/30 09:00:33;;;;;;;5.25;3.55;;;;;;;;;;4995325;28;20117;-83
2021/12/30 09:03:00;;;;;;;7.20;4.35;;;;;;;;;;4997251;28;20097;-85
2021/12/30 09:05:27;;;;;;;6.60;4.03;;;;;;;;;;5008224;28;20065;-83
2021/12/30 09:07:53;;;;;;;7.00;4.07;;;;;;;;;;5002263;28;20023;-83
2021/12/30 09:10:20;;;;;;;6.97;4.82;;;;;;;;;;4997323;28;20038;-83
2021/12/30 09:12:46;;;;;;;8.38;4.80;;;;;;;;;;4998553;28;20032;-84
2021/12/30 09:15:13;;;;;;;7.32;4.55;;;;;;;;;;4998684;28;20037;-84
2021/12/30 09:17:40;;;;;;;7.65;5.03;;;;;;;;;;4992892;28;20026;-86
2021/12/30 09:20:07;;;;;;;9.05;4.72;;;;;;;;;;4997833;28;20026;-85
2021/12/30 09:22:33;;;;;;;7.93;4.63;;;;;;;;;;4998566;28;20026;-85
2021/12/30 09:24:59;;;;;;;8.15;4.53;;;;;;;;;;4996572;28;20034;-85
2021/12/30 09:27:25;;;;;;;5.38;3.85;;;;;;;;;;4998676;28;20517;-83
2021/12/30 09:29:51;;;;;;;6.05;3.58;;;;;;;;;;4997711;28;20101;-84
2021/12/30 09:32:17;;;;;;;5.82;4.18;;;;;;;;;;4996415;28;20033;-84
2021/12/30 09:34:44;;;;;;;6.15;3.45;;;;;;;;;;4990327;28;20022;-84
2021/12/30 09:37:10;;;;;;;3.83;2.95;;;;;;;;;;4996577;28;20101;-84
2021/12/30 09:39:40;;;;;;;3.75;3.17;;;;;;;;;;5002456;28;20075;-84
2021/12/30 09:42:07;;;;;;;4.68;3.17;;;;;;;;;;4997448;28;20105;-84
2021/12/30 09:44:33;;;;;;;4.55;3.22;;;;;;;;;;4999818;28;20026;-84
2021/12/30 09:46:59;;;;;;;4.20;3.33;;;;;;;;;;4998922;28;20018;-84
2021/12/30 09:49:25;;;;;;;4.55;2.60;;;;;;;;;;5000843;28;20172;-84
2021/12/30 09:51:51;;;;;;;3.95;2.88;;;;;;;;;;5006068;28;20049;-84
2021/12/30 09:54:18;;;;;;;5.30;3.28;;;;;;;;;;5017577;28;20042;-85
2021/12/30 09:56:47;;;;;;;6.88;3.80;;;;;;;;;;5017022;28;20050;-89
2021/12/30 09:59:13;;;;;;;7.80;3.88;;;;;;;;;;5014450;28;20073;-85
2021/12/30 10:01:41;;;;;;;6.25;3.63;;;;;;;;;;4993143;28;20048;-85
2021/12/30 10:04:07;;;;;;;10.38;9.25;;;;;;;;;;4995053;28;20120;-86
2021/12/30 10:06:34;;;;;;;37.88;13.25;;;;;;;;;;4993919;28;20422;-89
2021/12/30 10:09:04;;;;;;;10.27;4.03;;;;;;;;;;4997177;28;20034;-85
2021/12/30 10:11:30;;;;;;;8.03;4.40;;;;;;;;;;5015206;28;20011;-85
2021/12/30 10:13:59;;;;;;;5.40;3.92;;;;;;;;;;4994893;28;20500;-85
2021/12/30 10:16:26;;;;;;;5.30;4.25;;;;;;;;;;4993457;28;20021;-87
2021/12/30 10:18:55;;;;;;;5.05;4.05;;;;;;;;;;5000069;28;20065;-83
2021/12/30 10:21:22;;;;;;;4.15;3.60;;;;;;;;;;5002045;28;20026;-83
2021/12/30 10:23:50;;;;;;;8.93;4.22;;;;;;;;;;4998640;28;20034;-83
2021/12/30 10:26:16;;;;;;;7.18;4.13;;;;;;;;;;4993283;28;20406;-84
2021/12/30 10:28:44;;;;;;;7.25;4.07;;;;;;;;;;4995821;28;20105;-86
2021/12/30 10:31:12;;;;;;;5.03;4.05;;;;;;;;;;4980532;28;20026;-83
2021/12/30 10:33:53;;;;;;;6.57;4.07;;;;;;;;;;4997741;28;20054;-83
2021/12/30 10:36:29;;;;;;;8.93;3.87;;;;;;;;;;4999236;28;20044;-82
2021/12/30 10:38:56;;;;;;;6.78;4.97;;;;;;;;;;4999644;28;20289;-83
2021/12/30 10:41:25;;;;;;;6.60;4.38;;;;;;;;;;4997334;28;20046;-83
2021/12/30 10:46:37;;;;;;;5.63;4.50;;;;;;;;;;5007376;28;20108;-87
2021/12/30 10:49:09;;;;;;;6.13;4.32;;;;;;;;;;5020571;28;20041;-84
2021/12/30 10:51:48;;;;;;;6.47;4.72;;;;;;;;;;5020336;28;19999;-85
2021/12/30 10:54:18;;;;;;;8.18;4.82;;;;;;;;;;5020341;28;20037;-85
2021/12/30 10:56:52;;;;;;;7.90;4.68;;;;;;;;;;5010719;28;20027;-85
2021/12/30 10:59:23;;;;;;;7.32;4.78;;;;;;;;;;5000889;28;20034;-85
2021/12/30 11:02:26;;;;;;;6.30;5.32;;;;;;;;;;5016673;28;20015;-84
2021/12/30 11:05:25;;;;;;;9.57;4.97;;;;;;;;;;4999929;28;20049;-86
2021/12/30 11:13:14;;;;;;;6.63;5.10;;;;;;;;;;5105228;22;19910;-84
2021/12/30 11:15:57;;;;;;;;;;;;;;;;;;;;;
2021/12/30 11:18:24;;;;;;;8.25;5.97;;;;;;;;;;5020095;28;20029;-86
2021/12/30 11:20:50;;;;;;;5.82;4.68;;;;;;;;;;5017412;28;20034;-86
2021/12/30 11:23:17;;;;;;;6.53;4.97;;;;;;;;;;5020718;28;20038;-86
2021/12/30 11:25:44;;;;;;;9.05;5.00;;;;;;;;;;5021226;28;20025;-86
2021/12/30 11:28:10;;;;;;;8.80;5.35;;;;;;;;;;5020358;28;20025;-86
2021/12/30 11:30:36;;;;;;;7.93;5.95;;;;;;;;;;5021075;28;20023;-86
2021/12/30 11:33:03;;;;;;;8.05;5.80;;;;;;;;;;5020066;28;20018;-85
2021/12/30 11:35:29;;;;;;;7.53;5.30;;;;;;;;;;5020884;28;20092;-87
2021/12/30 11:37:55;;;;;;;8.30;4.95;;;;;;;;;;5019979;28;20014;-91
2021/12/30 11:40:23;;;;;;;8.40;4.90;;;;;;;;;;5019490;28;20050;-89
2021/12/30 11:43:12;;;;;;;6.32;4.85;;;;;;;;;;5019738;28;20026;-90
2021/12/30 11:45:39;;;;;;;6.22;4.70;;;;;;;;;;5015040;28;20050;-89
2021/12/30 11:48:07;;;;;;;7.13;5.15;;;;;;;;;;5019435;28;20014;-88
2021/12/30 11:50:37;;;;;;;6.97;5.03;;;;;;;;;;5020244;28;20014;-86
2021/12/30 11:53:08;;;;;;;7.68;5.00;;;;;;;;;;5020312;28;20007;-88
2021/12/30 11:55:41;;;;;;;6.95;4.82;;;;;;;;;;5019090;28;20106;-88
2021/12/30 11:58:26;;;;;;;7.60;4.40;;;;;;;;;;5019861;28;20070;-87
2021/12/30 12:00:52;;;;;;;6.28;4.22;;;;;;;;;;5018186;28;20027;-88
2021/12/30 12:03:32;;;;;;;4.90;3.78;;;;;;;;;;5019892;28;20030;-88
2021/12/30 12:05:58;;;;;;;3.83;3.30;;;;;;;;;;5020024;28;20018;-89
2021/12/30 12:08:44;;;;;;;6.53;3.67;;;;;;;;;;5018889;28;20050;-85
2021/12/30 12:11:15;;;;;;;4.72;3.65;;;;;;;;;;5000462;28;20029;-87
2021/12/30 12:13:41;;;;;;;5.72;2.90;;;;;;;;;;5000309;28;20049;-86
2021/12/30 12:16:07;;;;;;;4.40;2.65;;;;;;;;;;5012156;28;20019;-89
2021/12/30 12:18:33;;;;;;;2.08;1.88;;;;;;;;;;5019774;28;20038;-86
2021/12/30 12:21:04;;;;;;;2.03;1.83;;;;;;;;;;5019634;28;20018;-85
2021/12/30 12:23:32;;;;;;;3.45;1.55;;;;;;;;;;5018082;28;20030;-85
2021/12/30 12:26:09;;;;;;;3.45;1.65;;;;;;;;;;5019505;28;20023;-86
2021/12/30 12:28:35;;;;;;;1.83;1.30;;;;;;;;;;5018548;28;20030;-85
2021/12/30 12:33:58;;;;;;;1.25;1.05;;;;;;;;;;5697329;22;20042;-86
2021/12/30 12:36:33;;;;;;;1.80;1.17;;;;;;;;;;5017523;28;20007;-86
2021/12/30 12:39:08;;;;;;;1.23;1.10;;;;;;;;;;5018511;28;20023;-87
2021/12/30 12:44:19;;;;;;;1.55;0.82;;;;;;;;;;5050327;22;1120195;-86
2021/12/30 12:46:46;;;;;;;1.35;1.00;;;;;;;;;;5018182;28;20019;-84
2021/12/30 12:49:36;;;;;;;2.92;0.90;;;;;;;;;;5049649;23;20110;-85
2021/12/30 12:52:04;;;;;;;1.33;0.90;;;;;;;;;;4990999;28;20051;-85
2021/12/30 12:54:35;;;;;;;2.78;1.10;;;;;;;;;;5000272;28;20026;-85
2021/12/30 12:57:13;;;;;;;2.60;0.77;;;;;;;;;;4999719;28;20082;-86
2021/12/30 12:59:40;;;;;;;1.23;0.93;;;;;;;;;;4999952;28;20286;-86
2021/12/30 13:02:07;;;;;;;2.13;0.90;;;;;;;;;;4999612;28;20097;-88
2021/12/30 13:04:33;;;;;;;4.25;0.80;;;;;;;;;;5000247;28;20018;-86
2021/12/30 13:06:59;;;;;;;1.75;0.88;;;;;;;;;;4999132;28;20027;-87
2021/12/30 13:09:25;;;;;;;1.65;0.80;;;;;;;;;;4999621;28;20029;-85
2021/12/30 13:11:52;;;;;;;1.55;0.70;;;;;;;;;;4999212;28;20031;-86
2021/12/30 13:14:23;;;;;;;0.50;0.50;;;;;;;;;;4999516;28;20138;-87
2021/12/30 13:16:53;;;;;;;2.17;0.88;;;;;;;;;;4983046;28;20027;-86
2021/12/30 13:19:20;;;;;;;2.10;0.88;;;;;;;;;;4999866;28;20023;-88
2021/12/30 13:21:46;;;;;;;1.75;0.90;;;;;;;;;;4999457;28;20038;-88
2021/12/30 13:24:31;;;;;;;1.00;0.80;;;;;;;;;;4999215;28;20863;-85
2021/12/30 13:26:57;;;;;;;3.20;0.93;;;;;;;;;;4999575;28;20017;-86
2021/12/30 13:29:24;;;;;;;4.38;0.77;;;;;;;;;;4999768;28;20027;-86
2021/12/30 13:32:05;;;;;;;1.02;0.80;;;;;;;;;;4999263;28;20027;-85
2021/12/30 13:34:40;;;;;;;1.00;0.77;;;;;;;;;;4999304;28;20022;-85
2021/12/30 13:37:21;;;;;;;2.80;0.95;;;;;;;;;;4998931;28;20073;-85
2021/12/30 13:39:48;;;;;;;4.55;0.93;;;;;;;;;;4999030;28;20035;-84
2021/12/30 13:42:26;;;;;;;3.63;0.73;;;;;;;;;;4998088;28;20019;-84
2021/12/30 13:44:55;;;;;;;2.17;0.75;;;;;;;;;;4998373;28;20015;-84
2021/12/30 13:47:39;;;;;;;1.40;0.70;;;;;;;;;;4998018;28;20034;-84
2021/12/30 13:50:22;;;;;;;3.00;0.70;;;;;;;;;;4997315;28;20041;-85
2021/12/30 13:52:51;;;;;;;1.85;0.60;;;;;;;;;;5567448;23;20161;-84
2021/12/30 13:55:25;;;;;;;2.40;0.90;;;;;;;;;;5018315;28;20034;-85
2021/12/30 13:58:03;;;;;;;1.73;0.85;;;;;;;;;;5017806;28;20025;-87
2021/12/30 14:00:47;;;;;;;1.42;0.63;;;;;;;;;;5017633;28;20045;-85
2021/12/30 14:03:15;;;;;;;2.22;0.70;;;;;;;;;;4984684;28;20027;-87
2021/12/30 14:05:44;;;;;;;3.72;0.82;;;;;;;;;;4993361;28;20070;-87
2021/12/30 14:08:12;;;;;;;5.57;1.48;;;;;;;;;;4982332;28;20077;-87
2021/12/30 14:10:46;;;;;;;3.70;1.20;;;;;;;;;;4999357;28;20007;-88
2021/12/30 14:13:12;;;;;;;7.05;1.55;;;;;;;;;;4999296;28;20055;-88
2021/12/30 14:15:38;;;;;;;2.28;1.52;;;;;;;;;;4999142;28;20023;-86
2021/12/30 14:18:08;;;;;;;3.03;1.30;;;;;;;;;;4998436;28;20094;-85
2021/12/30 14:20:34;;;;;;;5.13;1.38;;;;;;;;;;4998741;28;20011;-86
2021/12/30 14:23:00;;;;;;;1.33;1.20;;;;;;;;;;4998575;28;20011;-88
2021/12/30 14:25:57;;;;;;;4.05;1.45;;;;;;;;;;4998866;28;20017;-88
2021/12/30 14:28:41;;;;;;;3.75;1.88;;;;;;;;;;4997791;28;20033;-86
2021/12/30 14:31:17;;;;;;;3.05;1.25;;;;;;;;;;4990041;28;20038;-86
2021/12/30 14:33:43;;;;;;;3.92;1.70;;;;;;;;;;4998515;28;20035;-86
2021/12/30 14:36:12;;;;;;;5.97;1.40;;;;;;;;;;4998408;28;20034;-86
2021/12/30 14:38:39;;;;;;;3.58;1.38;;;;;;;;;;4998764;28;20011;-87
2021/12/30 14:41:08;;;;;;;6.72;1.42;;;;;;;;;;4999024;28;20011;-87
2021/12/30 14:43:34;;;;;;;2.60;1.40;;;;;;;;;;4999264;28;20038;-86
2021/12/30 14:46:12;;;;;;;2.65;1.50;;;;;;;;;;4999065;28;20026;-88
2021/12/30 14:49:01;;;;;;;5.90;1.48;;;;;;;;;;4999014;28;20011;-85
2021/12/30 14:51:33;;;;;;;4.43;1.63;;;;;;;;;;4997790;28;20050;-86
2021/12/30 14:54:16;;;;;;;3.58;1.45;;;;;;;;;;4998438;28;20041;-86
2021/12/30 14:56:44;;;;;;;5.63;1.42;;;;;;;;;;4998559;28;20031;-86
2021/12/30 14:59:10;;;;;;;7.13;1.77;;;;;;;;;;4998520;28;20194;-86
2021/12/30 15:01:50;;;;;;;5.50;1.30;;;;;;;;;;4998684;28;20075;-86
2021/12/30 15:06:53;;;;;;;2.00;1.30;;;;;;;;;;5375318;23;20039;-87